Stations météo

réclame
Mon MeteoGroup
Arties, Espagne (8107): Température de l'air & dewpoint: 14.08.2018 01:00:00 - 20.08.2018 01:00:00 (CEST)Arties, Espagne (8107): Vitesse du vent & gusts: 14.08.2018 01:00:00 - 20.08.2018 01:00:00 (CEST)Arties, Espagne (8107): Direction du vent: 14.08.2018 01:00:00 - 20.08.2018 01:00:00 (CEST)Arties, Espagne (8107): Quantités de précipitations: 14.08.2018 01:00:00 - 20.08.2018 01:00:00 (CEST)
Date & Time tt [°C] td [°C] ff [km/h] ff [knt] fx [km/h] fx [knt] dd rr [mm]
20.08.2018 01:00:00 14,9 13,0 3 1 10 5 ENE 0,0
20.08.2018 00:00:00 15,3 12,7 5 3 11 6 ENE 0,0
19.08.2018 23:00:00 16,0 13,0 5 3 9 5 ENE 0,0
19.08.2018 22:00:00 18,0 12,6 4 2 15 8 SW 0,0
19.08.2018 21:00:00 18,4 12,6 3 2 19 10 SW 0,0
19.08.2018 20:00:00 19,7 12,0 7 4 24 13 SW -
19.08.2018 19:00:00 22,5 12,4 8 4 23 13 SW 0,0
19.08.2018 18:00:00 24,4 12,6 7 4 24 13 SW 0,0
19.08.2018 17:00:00 24,9 11,8 8 4 24 13 SW 0,0
19.08.2018 16:00:00 25,5 12,3 6 4 22 12 SW 0,0
19.08.2018 15:00:00 24,9 12,1 6 3 22 12 SW 0,0
19.08.2018 14:00:00 22,2 11,0 7 4 22 12 SW -
19.08.2018 13:00:00 23,0 12,3 7 4 21 12 SW 0,0
19.08.2018 12:00:00 21,3 11,6 6 3 16 9 SW 0,0
19.08.2018 11:00:00 18,8 12,1 3 1 7 4 SW 0,0
19.08.2018 10:00:00 13,9 10,9 2 1 3 2 WSW 0,0
19.08.2018 09:00:00 11,2 9,7 0 0 6 3 NE 0,0
19.08.2018 08:00:00 10,1 8,4 0 0 12 7 N -
19.08.2018 07:00:00 10,5 8,7 3 2 10 6 E 0,0
19.08.2018 06:00:00 11,6 9,0 5 3 14 8 ENE 0,0
19.08.2018 05:00:00 12,9 9,7 3 2 11 6 ENE 0,0
19.08.2018 04:00:00 13,6 11,1 3 2 10 5 ENE 0,0
19.08.2018 03:00:00 13,9 11,9 0 0 4 2 N 0,0
19.08.2018 02:00:00 13,9 11,9 0 0 3 1 N -
19.08.2018 01:00:00 14,0 12,0 0 0 1 0 N 0,0
19.08.2018 00:00:00 13,5 11,3 1 0 3 1 NE 0,0
18.08.2018 23:00:00 13,8 11,0 0 0 10 5 SE 0,0
18.08.2018 22:00:00 15,6 10,5 1 1 13 7 W 0,0
18.08.2018 21:00:00 16,8 10,2 5 3 18 10 SW 0,0
18.08.2018 20:00:00 18,4 10,3 6 3 18 10 SW -
18.08.2018 19:00:00 19,9 10,0 6 3 21 12 SW 0,0
18.08.2018 18:00:00 20,5 9,0 6 4 21 12 SW 0,0
18.08.2018 17:00:00 22,1 10,3 7 4 19 11 SW 0,0
18.08.2018 16:00:00 21,0 9,6 7 4 21 12 SW 0,0
18.08.2018 15:00:00 21,2 10,4 8 4 21 12 SW 0,0
18.08.2018 14:00:00 20,3 10,6 6 4 21 11 WSW -
18.08.2018 13:00:00 19,1 10,4 5 3 14 8 WSW 0,0
18.08.2018 12:00:00 16,9 9,8 4 2 14 7 W 0,0
18.08.2018 11:00:00 14,5 11,1 3 2 9 5 SW 0,0
18.08.2018 10:00:00 13,2 11,1 2 1 7 4 WSW 0,0
18.08.2018 09:00:00 11,7 10,6 1 1 4 2 SSW 0,0
18.08.2018 08:00:00 11,0 10,0 1 1 5 3 WSW -
18.08.2018 07:00:00 10,9 9,9 2 1 6 3 S 0,0
18.08.2018 06:00:00 11,1 10,0 1 1 10 5 SW 0,0
18.08.2018 05:00:00 11,5 10,4 1 1 11 6 SW 0,0
18.08.2018 04:00:00 11,7 10,6 2 1 12 7 WSW 0,0
18.08.2018 03:00:00 11,8 10,9 2 1 12 7 W 0,0
18.08.2018 02:00:00 12,1 11,1 2 1 9 5 SW -
18.08.2018 01:00:00 12,3 11,3 1 1 8 4 SSW 0,0
18.08.2018 00:00:00 12,3 11,0 1 1 11 6 SSE 0,0
17.08.2018 23:00:00 12,4 11,1 1 1 11 6 W 0,0
17.08.2018 22:00:00 12,5 11,4 4 2 16 9 W 0,0
17.08.2018 21:00:00 13,4 12,6 2 1 14 7 WSW 0,1
17.08.2018 20:00:00 14,3 13,6 3 2 15 8 SW -
17.08.2018 19:00:00 15,0 14,2 3 2 13 7 SW 1,5
17.08.2018 18:00:00 15,8 14,1 4 2 16 8 SW 1,3
17.08.2018 17:00:00 16,6 13,4 3 2 13 7 W 0,0
17.08.2018 16:00:00 16,6 12,3 6 3 24 13 SW 0,0
17.08.2018 15:00:00 17,1 12,4 7 4 23 13 WSW 0,0
17.08.2018 14:00:00 19,0 13,0 7 4 21 11 SW -
17.08.2018 13:00:00 20,4 13,4 7 4 23 12 WSW 0,0
17.08.2018 12:00:00 19,0 12,7 5 3 18 10 WSW 0,0
17.08.2018 11:00:00 17,8 13,6 3 2 16 8 WSW 0,0
17.08.2018 10:00:00 15,8 13,5 4 2 12 7 W 0,0
17.08.2018 09:00:00 15,2 13,6 1 1 8 5 W 0,0
17.08.2018 08:00:00 14,8 13,6 2 1 10 6 WSW -
17.08.2018 07:00:00 15,1 13,3 2 1 19 11 WSW 0,0
17.08.2018 06:00:00 15,6 13,8 3 1 19 10 WSW 0,0
17.08.2018 05:00:00 16,3 15,0 1 0 7 4 SW 0,0
17.08.2018 04:00:00 16,4 15,3 0 0 11 6 E 0,0
17.08.2018 03:00:00 16,7 15,9 0 0 7 4 S 0,0
17.08.2018 02:00:00 17,3 16,1 0 0 0 0 N -
17.08.2018 01:00:00 17,3 16,1 0 0 2 1 N 0,0
17.08.2018 00:00:00 17,2 16,0 0 0 10 5 S 0,0
16.08.2018 23:00:00 17,0 15,7 3 2 8 5 ENE 0,0
16.08.2018 22:00:00 17,5 16,2 0 0 3 2 N 0,0
16.08.2018 21:00:00 18,0 16,1 0 0 4 2 NE 0,0
16.08.2018 20:00:00 - - - - - - - -
16.08.2018 19:00:00 20,8 13,8 6 3 22 12 SW 0,0
16.08.2018 18:00:00 21,5 13,2 6 4 22 12 SW 0,0
16.08.2018 17:00:00 23,2 11,9 7 4 25 14 SW 0,0
16.08.2018 16:00:00 27,3 14,3 7 4 28 15 SW 0,0
16.08.2018 15:00:00 27,4 14,4 8 4 23 12 SW 0,0
16.08.2018 14:00:00 27,4 14,4 6 3 18 10 SW -
16.08.2018 13:00:00 26,2 14,3 5 3 17 9 SW 0,0
16.08.2018 12:00:00 24,3 14,7 5 3 16 8 SW 0,0
16.08.2018 11:00:00 22,9 13,4 1 1 4 2 S 0,0
16.08.2018 10:00:00 18,0 14,5 1 0 4 2 WSW 0,0
16.08.2018 09:00:00 14,8 12,3 1 1 6 4 E 0,0
16.08.2018 08:00:00 13,0 11,2 1 0 9 5 E -
16.08.2018 07:00:00 13,0 11,1 3 1 10 5 E 0,0
16.08.2018 06:00:00 13,8 11,3 0 0 16 9 E 0,0
16.08.2018 05:00:00 15,6 11,2 6 3 16 8 E 0,0
16.08.2018 04:00:00 15,7 11,4 6 3 13 7 E 0,0
16.08.2018 03:00:00 13,3 11,9 1 0 10 5 ESE 0,0
16.08.2018 02:00:00 14,1 12,1 4 2 11 6 ENE -
16.08.2018 01:00:00 14,7 12,7 2 1 10 5 E 0,0
16.08.2018 00:00:00 15,3 13,0 4 2 14 8 ENE 0,0
15.08.2018 23:00:00 15,5 13,7 0 0 3 2 N 0,0
15.08.2018 22:00:00 17,3 14,4 0 0 9 5 NE 0,0
15.08.2018 21:00:00 19,7 14,5 4 2 21 11 W 0,0
15.08.2018 20:00:00 22,5 13,6 6 4 23 12 SW -
15.08.2018 19:00:00 24,9 13,5 6 4 21 11 SW 0,0
15.08.2018 18:00:00 26,1 12,2 7 4 24 13 SW 0,0
15.08.2018 17:00:00 26,3 11,2 5 3 24 13 WSW 0,0
15.08.2018 16:00:00 26,7 11,6 8 4 27 14 SW 0,0
15.08.2018 15:00:00 26,7 11,6 6 4 20 11 WSW 0,0
15.08.2018 14:00:00 25,9 10,9 5 3 20 11 W -
15.08.2018 13:00:00 23,8 10,2 3 1 11 6 SW 0,0
15.08.2018 12:00:00 21,5 10,6 3 2 9 5 SW 0,0
15.08.2018 11:00:00 18,6 10,4 2 1 5 3 SW 0,0
15.08.2018 10:00:00 13,8 10,4 2 1 4 2 WSW 0,0
15.08.2018 09:00:00 11,0 8,0 2 1 9 5 E 0,0
15.08.2018 08:00:00 9,1 7,4 1 1 9 5 ENE -
15.08.2018 07:00:00 9,8 7,7 5 3 13 7 E 0,0
15.08.2018 06:00:00 10,6 8,1 6 4 13 7 ENE 0,0
15.08.2018 05:00:00 11,1 9,2 3 1 9 5 ENE 0,0
15.08.2018 04:00:00 12,7 8,9 5 3 11 6 E 0,0
15.08.2018 03:00:00 12,7 9,2 4 2 10 5 E 0,0
15.08.2018 02:00:00 12,9 9,7 4 2 9 5 ENE -
15.08.2018 01:00:00 13,7 11,8 1 0 4 2 ENE 0,0
15.08.2018 00:00:00 13,8 11,7 0 0 6 3 N 0,0
14.08.2018 23:00:00 14,1 11,1 2 1 9 5 ENE 0,0
14.08.2018 22:00:00 15,2 10,4 3 2 14 7 NW 0,0
14.08.2018 21:00:00 16,1 10,4 5 3 17 9 SW 0,0
14.08.2018 20:00:00 17,0 10,6 6 3 23 12 SW -
14.08.2018 19:00:00 19,6 10,3 7 4 20 11 SW 0,0
14.08.2018 18:00:00 21,7 11,1 6 4 21 11 SW 0,0
14.08.2018 17:00:00 21,1 10,9 8 4 23 12 SW 0,0
14.08.2018 16:00:00 21,5 10,9 7 4 27 15 SW 0,0
14.08.2018 15:00:00 22,3 11,7 8 5 27 15 WSW 0,0
14.08.2018 14:00:00 21,3 11,9 9 5 26 14 SW -
14.08.2018 13:00:00 20,6 12,0 8 5 23 13 WSW 0,0
14.08.2018 12:00:00 19,2 11,8 8 4 23 13 WSW 0,0
14.08.2018 11:00:00 18,7 13,2 5 3 16 8 WSW 0,0
14.08.2018 10:00:00 15,7 13,2 3 1 9 5 WSW 0,0
14.08.2018 09:00:00 14,0 12,7 3 1 9 5 WSW 0,0
14.08.2018 08:00:00 13,7 12,7 1 0 11 6 SW -
14.08.2018 07:00:00 13,7 12,4 1 1 7 4 W 0,0
14.08.2018 06:00:00 13,9 12,4 1 1 9 5 WSW 0,0
14.08.2018 05:00:00 14,2 12,4 2 1 10 6 WSW 0,0
14.08.2018 04:00:00 14,3 12,5 2 1 11 6 W 0,0
14.08.2018 03:00:00 14,5 12,7 1 1 13 7 W 0,0
14.08.2018 02:00:00 14,9 13,1 2 1 10 6 W -
14.08.2018 01:00:00 15,4 13,8 3 2 12 7 SW 0,0

tt = Température de l'air
td = dewpoint
ff = Vitesse du vent
fx = gusts
dd = Direction du vent
rr = Quantités de précipitations

stations d'obs. à proximité